This is the latest recevied weather packets stored in our database for station/object K5BOU. If no packets are shown the sender has not sent any weather packets the latest 10 day(s).
| Time | Temp. | Humidity | Pressure | Rain* | Wind** | Luminosity | Snow |
|---|---|---|---|---|---|---|---|
| 1788567449 | 31.67° C | 77% | 1010.3 hPa | 0 mm | - | 21 W/m² | - |
| 1788567148 | 31.67° C | 77% | 1010.5 hPa | 0 mm | - | 21 W/m² | - |
| 1788566844 | 31.67° C | 77% | 1010.3 hPa | 0 mm | - | 24 W/m² | - |
| 1788566539 | 32.22° C | 76% | 1010.2 hPa | 0 mm | - | 29 W/m² | - |
| 1788566234 | 32.22° C | 75% | 1010.2 hPa | 0 mm | - | 34 W/m² | - |
| 1788565929 | 32.22° C | 75% | 1010 hPa | 0 mm | - | 39 W/m² | - |
| 1788565623 | 32.22° C | 75% | 1010.2 hPa | 0 mm | - | 47 W/m² | - |
| 1788565319 | 32.22° C | 75% | 1010.3 hPa | 0 mm | - | 72 W/m² | - |
| 1788565014 | 32.22° C | 75% | 1010.1 hPa | 0 mm | - | 83 W/m² | - |
| 1788564710 | 32.78° C | 75% | 1010.2 hPa | 0 mm | - | 101 W/m² | - |
| 1788564407 | 32.22° C | 75% | 1010.3 hPa | 0 mm | - | 119 W/m² | - |
| 1788564103 | 32.78° C | 75% | 1010.2 hPa | 0 mm | - | 134 W/m² | - |
| 1788563798 | 32.22° C | 76% | 1010.2 hPa | 0 mm | - | 144 W/m² | - |
| 1788563493 | 32.78° C | 75% | 1010.1 hPa | 0 mm | - | 145 W/m² | - |
| 1788563192 | 32.78° C | 73% | 1010.3 hPa | 0 mm | - | 130 W/m² | - |
| 1788562888 | 33.33° C | 71% | 1010 hPa | 0 mm | - | 152 W/m² | - |
| 1788562586 | 33.33° C | 68% | 1010.3 hPa | 0 mm | - | 162 W/m² | - |
| 1788562280 | 33.89° C | 68% | 1010.3 hPa | 0 mm | - | 103 W/m² | - |
| 1788561975 | 34.44° C | 67% | 1009.9 hPa | 0 mm | - | 121 W/m² | - |
| 1788561670 | 34.44° C | 69% | 1010.5 hPa | 0 mm | - | 189 W/m² | - |
| 1788561369 | 33.89° C | 67% | 1010.2 hPa | 0 mm | - | 189 W/m² | - |
| 1788561065 | 34.44° C | 68% | 1010.3 hPa | 0 mm | - | 258 W/m² | - |
| 1788560761 | 34.44° C | 68% | 1010.3 hPa | 0 mm | - | 253 W/m² | - |
| 1788560455 | 34.44° C | 69% | 1010.3 hPa | 0 mm | - | 302 W/m² | - |
| 1788560150 | 33.89° C | 71% | 1010.1 hPa | 0 mm | - | 405 W/m² | - |
* Rain latest hour (hover to see other rain measurements)
** Current wind speed in m/s (hover to see current wind gust speed)